createdAt,value
2017-10-04T00:00:27.798Z,13.30
2017-10-04T00:02:58.094Z,13.30
2017-10-04T00:05:28.401Z,13.20
2017-10-04T00:07:58.626Z,13.30
2017-10-04T00:10:28.996Z,13.20
2017-10-04T00:12:59.317Z,13.20
2017-10-04T00:15:29.490Z,13.20
2017-10-04T00:17:59.830Z,13.20
2017-10-04T00:20:29.962Z,13.20
2017-10-04T00:23:00.073Z,13.20
2017-10-04T00:25:30.545Z,13.20
2017-10-04T00:28:00.928Z,13.20
2017-10-04T00:30:31.329Z,13.20
2017-10-04T00:33:01.777Z,13.20
2017-10-04T00:35:32.378Z,13.20
2017-10-04T00:38:02.837Z,13.20
2017-10-04T00:40:33.782Z,13.10
2017-10-04T00:43:04.809Z,13.10
2017-10-04T00:45:35.302Z,13.10
2017-10-04T00:48:05.572Z,13.10
2017-10-04T00:50:36.620Z,13.10
2017-10-04T00:53:06.810Z,13.10
2017-10-04T00:55:37.245Z,13.10
2017-10-04T00:58:07.650Z,13.10
2017-10-04T01:00:38.883Z,13.10
2017-10-04T01:03:09.375Z,13.10
2017-10-04T01:05:39.702Z,13.10
2017-10-04T01:08:10.006Z,13.10
2017-10-04T01:10:41.105Z,13.10
2017-10-04T01:13:11.151Z,13.10
2017-10-04T01:15:41.310Z,13.10
2017-10-04T01:18:11.605Z,13.00
2017-10-04T01:20:42.202Z,13.00
2017-10-04T01:23:12.371Z,13.00
2017-10-04T01:25:43.528Z,13.00
2017-10-04T01:28:20.392Z,13.00
2017-10-04T01:30:50.630Z,13.00
2017-10-04T01:33:20.788Z,13.00
2017-10-04T01:35:51.019Z,13.00
2017-10-04T01:38:21.233Z,13.00
2017-10-04T01:40:51.539Z,13.00
2017-10-04T01:43:21.789Z,12.90
2017-10-04T01:45:51.948Z,12.90
2017-10-04T01:48:22.337Z,12.90
2017-10-04T01:50:52.542Z,12.90
2017-10-04T01:53:23.501Z,12.90
2017-10-04T01:55:53.702Z,12.90
2017-10-04T01:58:24.111Z,12.90
2017-10-04T02:00:54.360Z,12.90
2017-10-04T02:03:24.685Z,12.90
2017-10-04T02:05:55.117Z,12.90
2017-10-04T02:08:25.422Z,12.90
2017-10-04T02:10:55.709Z,12.90
2017-10-04T02:13:26.018Z,12.90
2017-10-04T02:15:56.289Z,12.90
2017-10-04T02:18:26.502Z,12.80
2017-10-04T02:20:56.626Z,12.80
2017-10-04T02:23:26.975Z,12.80
2017-10-04T02:25:57.323Z,12.80
2017-10-04T02:28:27.661Z,12.70
2017-10-04T02:30:58.653Z,12.70
2017-10-04T02:33:29.087Z,12.70
2017-10-04T02:35:59.397Z,12.70
2017-10-04T02:38:29.799Z,12.80
2017-10-04T02:41:00.086Z,12.70
2017-10-04T02:43:30.382Z,12.80
2017-10-04T02:46:00.400Z,12.80
2017-10-04T02:48:30.904Z,12.70
2017-10-04T02:51:01.268Z,12.70
2017-10-04T02:53:31.559Z,12.70
2017-10-04T02:56:01.833Z,12.70
2017-10-04T02:58:32.219Z,12.70
2017-10-04T03:01:02.623Z,12.70
2017-10-04T03:03:32.820Z,12.70
2017-10-04T03:06:03.097Z,12.70
2017-10-04T03:08:33.997Z,12.70
2017-10-04T03:11:04.278Z,12.70
2017-10-04T03:13:34.596Z,12.70
2017-10-04T03:16:05.188Z,12.70
2017-10-04T03:18:35.605Z,12.70
2017-10-04T03:21:05.726Z,12.70
2017-10-04T03:23:35.985Z,12.60
2017-10-04T03:26:06.190Z,12.60
2017-10-04T03:28:36.540Z,12.70
2017-10-04T03:31:07.024Z,12.60
2017-10-04T03:33:37.287Z,12.60
2017-10-04T03:36:07.590Z,12.60
2017-10-04T03:38:37.796Z,12.60
2017-10-04T03:41:08.132Z,12.60
2017-10-04T03:43:38.336Z,12.60
2017-10-04T03:46:08.819Z,12.60
2017-10-04T03:48:39.199Z,12.60
2017-10-04T03:51:09.556Z,12.60
2017-10-04T03:53:39.859Z,12.60
2017-10-04T03:56:10.844Z,12.60
2017-10-04T03:58:41.312Z,12.60
2017-10-04T04:01:11.403Z,12.60
2017-10-04T04:03:41.778Z,12.60
2017-10-04T04:06:12.133Z,12.60
2017-10-04T04:08:43.269Z,12.60
2017-10-04T04:11:14.789Z,12.50
2017-10-04T04:13:45.102Z,12.50
2017-10-04T04:16:18.132Z,12.60
2017-10-04T04:18:49.106Z,12.50
2017-10-04T04:21:19.355Z,12.50
2017-10-04T04:23:49.517Z,12.50
2017-10-04T04:26:19.985Z,12.50
2017-10-04T04:28:50.558Z,12.60
2017-10-04T04:31:21.690Z,12.60
2017-10-04T04:33:52.009Z,12.50
2017-10-04T04:36:25.135Z,12.60
2017-10-04T04:39:03.029Z,12.60
2017-10-04T04:41:34.514Z,12.60
2017-10-04T04:44:04.761Z,12.60
2017-10-04T04:46:35.540Z,12.60
2017-10-04T04:49:06.414Z,12.60
2017-10-04T04:51:37.345Z,12.60
2017-10-04T04:54:07.565Z,12.60
2017-10-04T04:56:38.122Z,12.60
2017-10-04T04:59:08.411Z,12.60
2017-10-04T05:01:38.640Z,12.60
2017-10-04T05:04:08.877Z,12.60
2017-10-04T05:06:39.418Z,12.50
2017-10-04T05:09:09.858Z,12.60
2017-10-04T05:11:40.104Z,12.60
2017-10-04T05:14:10.504Z,12.50
2017-10-04T05:16:41.393Z,12.60
2017-10-04T05:19:11.597Z,12.50
2017-10-04T05:21:42.862Z,12.60
2017-10-04T05:24:12.925Z,12.50
2017-10-04T05:26:43.793Z,12.50
2017-10-04T05:29:14.909Z,12.50
2017-10-04T05:31:45.116Z,12.50
2017-10-04T05:34:15.553Z,12.60
2017-10-04T05:36:46.025Z,12.50
2017-10-04T05:39:16.568Z,12.50
2017-10-04T05:41:46.945Z,12.50
2017-10-04T05:44:18.137Z,12.60
2017-10-04T05:46:48.543Z,12.50
2017-10-04T05:49:18.667Z,12.50
2017-10-04T05:51:59.129Z,12.50
2017-10-04T05:54:43.552Z,12.50
2017-10-04T05:57:16.625Z,12.50
2017-10-04T05:59:47.620Z,12.50
2017-10-04T06:02:17.886Z,12.50
2017-10-04T06:04:47.960Z,12.50
2017-10-04T06:07:18.264Z,12.50
2017-10-04T06:09:48.487Z,12.50
2017-10-04T06:12:19.492Z,12.50
2017-10-04T06:14:49.811Z,12.50
2017-10-04T06:17:19.854Z,12.60
2017-10-04T06:19:50.999Z,12.50
2017-10-04T06:22:21.305Z,12.50
2017-10-04T06:24:51.620Z,12.60
2017-10-04T06:27:21.929Z,12.60
2017-10-04T06:29:52.212Z,12.50
2017-10-04T06:32:22.658Z,12.50
2017-10-04T06:34:52.991Z,12.60
2017-10-04T06:37:23.310Z,12.60
2017-10-04T06:39:53.736Z,12.50
2017-10-04T06:42:23.856Z,12.50
2017-10-04T06:44:54.199Z,12.50
2017-10-04T06:47:24.843Z,12.50
2017-10-04T06:49:55.241Z,12.50
2017-10-04T06:52:25.759Z,12.50
2017-10-04T06:54:55.866Z,12.50
2017-10-04T06:57:26.606Z,12.50
2017-10-04T06:59:57.044Z,12.50
2017-10-04T07:02:27.202Z,12.50
2017-10-04T07:04:57.669Z,12.50
2017-10-04T07:07:27.878Z,12.50
2017-10-04T07:09:59.230Z,12.50
2017-10-04T07:12:29.564Z,12.50
2017-10-04T07:14:59.760Z,12.50
2017-10-04T07:17:30.113Z,12.50
2017-10-04T07:20:00.430Z,12.60
2017-10-04T07:22:30.811Z,12.60
2017-10-04T07:25:01.200Z,12.60
2017-10-04T07:27:31.639Z,12.60
2017-10-04T07:30:02.046Z,12.60
2017-10-04T07:32:32.352Z,12.60
2017-10-04T07:35:02.566Z,12.60
2017-10-04T07:37:32.912Z,12.60
2017-10-04T07:40:03.227Z,12.60
2017-10-04T07:42:33.691Z,12.60
2017-10-04T07:45:04.009Z,12.60
2017-10-04T07:47:34.399Z,12.60
2017-10-04T07:50:04.874Z,12.60
2017-10-04T07:52:35.745Z,12.60
2017-10-04T07:55:06.946Z,12.60
2017-10-04T07:57:37.340Z,12.60
2017-10-04T08:00:07.667Z,12.60
2017-10-04T08:02:37.920Z,12.60
2017-10-04T08:05:08.159Z,12.60
2017-10-04T08:07:38.485Z,12.60
2017-10-04T08:10:08.880Z,12.60
2017-10-04T08:12:39.045Z,12.60
2017-10-04T08:15:10.173Z,12.60
2017-10-04T08:17:40.514Z,12.60
2017-10-04T08:20:10.705Z,12.60
2017-10-04T08:22:40.909Z,12.70
2017-10-04T08:25:11.149Z,12.70
2017-10-04T08:27:41.537Z,12.70
2017-10-04T08:30:12.052Z,12.70
2017-10-04T08:32:43.056Z,12.80
2017-10-04T08:35:13.345Z,12.70
2017-10-04T08:37:43.861Z,12.70
2017-10-04T08:40:14.487Z,12.80
2017-10-04T08:42:44.961Z,12.80
2017-10-04T08:45:15.317Z,12.80
2017-10-04T08:47:57.350Z,12.80
2017-10-04T08:50:27.604Z,12.80
2017-10-04T08:52:57.720Z,12.80
2017-10-04T08:55:27.764Z,12.80
2017-10-04T08:57:58.035Z,12.80
2017-10-04T09:00:28.193Z,12.80
2017-10-04T09:02:58.379Z,12.80
2017-10-04T09:05:37.417Z,12.80
2017-10-04T09:08:07.551Z,12.90
2017-10-04T09:10:37.865Z,12.90
2017-10-04T09:13:08.125Z,12.90
2017-10-04T09:15:39.328Z,12.90
2017-10-04T09:18:09.535Z,12.80
2017-10-04T09:20:39.819Z,12.90
2017-10-04T09:23:10.992Z,12.90
2017-10-04T09:25:41.290Z,12.90
2017-10-04T09:28:12.367Z,13.00
2017-10-04T09:30:42.543Z,13.00
2017-10-04T09:33:13.710Z,13.00
2017-10-04T09:35:44.190Z,13.00
2017-10-04T09:38:14.408Z,13.00
2017-10-04T09:40:44.843Z,13.00
2017-10-04T09:43:15.343Z,13.00
2017-10-04T09:45:45.908Z,13.00
2017-10-04T09:48:16.096Z,13.00
2017-10-04T09:50:48.223Z,13.00
2017-10-04T09:53:18.671Z,13.00
2017-10-04T09:55:49.027Z,13.00
2017-10-04T09:58:19.391Z,13.00
2017-10-04T10:00:49.861Z,12.90
2017-10-04T10:03:20.327Z,12.90
2017-10-04T10:05:51.492Z,12.90
2017-10-04T10:08:21.720Z,12.90
2017-10-04T10:10:52.082Z,12.90
2017-10-04T10:13:22.378Z,12.90
2017-10-04T10:15:52.524Z,13.00
2017-10-04T10:18:23.268Z,13.00
2017-10-04T10:20:53.687Z,13.00
2017-10-04T10:23:24.269Z,13.00
2017-10-04T10:25:55.296Z,13.00
2017-10-04T10:28:25.680Z,13.00
2017-10-04T10:30:55.949Z,13.10
2017-10-04T10:33:26.351Z,13.10
2017-10-04T10:35:56.747Z,13.10
2017-10-04T10:38:27.121Z,13.10
2017-10-04T10:40:58.887Z,13.10
2017-10-04T10:43:29.957Z,13.20
2017-10-04T10:46:00.342Z,13.20
2017-10-04T10:48:30.539Z,13.20
2017-10-04T10:51:00.957Z,13.20
2017-10-04T10:53:31.321Z,13.20
2017-10-04T10:56:16.107Z,13.20
2017-10-04T10:58:46.444Z,13.20
2017-10-04T11:01:19.168Z,13.30
2017-10-04T11:03:50.294Z,13.30
2017-10-04T11:06:21.830Z,13.20
2017-10-04T11:08:52.174Z,13.20
2017-10-04T11:11:23.290Z,13.30
2017-10-04T11:13:53.584Z,13.30
2017-10-04T11:16:23.930Z,13.30
2017-10-04T11:18:54.189Z,13.20
2017-10-04T11:21:24.597Z,13.30
2017-10-04T11:23:54.886Z,13.30
2017-10-04T11:26:25.328Z,13.30
2017-10-04T11:28:55.655Z,13.30
2017-10-04T11:31:26.057Z,13.30
2017-10-04T11:33:56.376Z,13.30
2017-10-04T11:36:26.570Z,13.30
2017-10-04T11:38:56.947Z,13.30
2017-10-04T11:41:27.223Z,13.30
2017-10-04T11:43:57.679Z,13.30
2017-10-04T11:46:27.876Z,13.30
2017-10-04T11:48:58.204Z,13.30
2017-10-04T11:51:28.599Z,13.20
2017-10-04T11:53:59.012Z,13.30
2017-10-04T11:56:29.413Z,13.30
2017-10-04T11:58:59.596Z,13.30
2017-10-04T12:01:29.953Z,13.30
2017-10-04T12:04:00.351Z,13.30
2017-10-04T12:06:30.853Z,13.30
2017-10-04T12:09:01.029Z,13.30
2017-10-04T12:11:31.425Z,13.30
2017-10-04T12:14:01.669Z,13.30
2017-10-04T12:16:32.734Z,13.30
2017-10-04T12:19:03.112Z,13.30
2017-10-04T12:21:34.986Z,13.30
2017-10-04T12:24:06.132Z,13.30
2017-10-04T12:26:37.121Z,13.30
2017-10-04T12:29:08.309Z,13.30
2017-10-04T12:31:39.449Z,13.30
2017-10-04T12:34:09.665Z,13.30
2017-10-04T12:36:39.905Z,13.30
2017-10-04T12:39:10.401Z,13.30
2017-10-04T12:41:41.321Z,13.30
2017-10-04T12:44:11.621Z,13.30
2017-10-04T12:46:42.538Z,13.30
2017-10-04T12:49:13.949Z,13.30
2017-10-04T12:51:44.387Z,13.30
2017-10-04T12:54:14.716Z,13.30
2017-10-04T12:56:45.125Z,13.30
2017-10-04T12:59:15.626Z,13.20
2017-10-04T13:01:46.006Z,13.20
2017-10-04T13:04:16.433Z,13.20
2017-10-04T13:06:47.594Z,13.20
2017-10-04T13:09:18.499Z,13.20
2017-10-04T13:14:33.196Z,13.20
2017-10-04T13:17:03.662Z,13.20
2017-10-04T13:19:34.058Z,13.20
2017-10-04T13:22:05.032Z,13.20
2017-10-04T13:24:35.481Z,13.20
2017-10-04T13:27:05.852Z,13.30
2017-10-04T13:29:36.432Z,13.30
2017-10-04T13:32:06.700Z,13.30
2017-10-04T13:34:37.049Z,13.30
2017-10-04T13:37:07.432Z,13.30
2017-10-04T13:39:37.922Z,13.30
2017-10-04T13:42:08.118Z,13.30
2017-10-04T13:44:38.476Z,13.30
2017-10-04T13:47:08.873Z,13.30
2017-10-04T13:49:58.617Z,13.30
2017-10-04T13:52:44.846Z,13.30
2017-10-04T13:55:17.537Z,13.20
2017-10-04T13:57:48.762Z,13.30
2017-10-04T14:00:19.170Z,13.20
2017-10-04T14:02:50.181Z,13.30
2017-10-04T14:05:21.225Z,13.30
2017-10-04T14:07:51.656Z,13.20
2017-10-04T14:10:22.106Z,13.30
2017-10-04T14:12:52.574Z,13.30
2017-10-04T14:15:23.147Z,13.30
2017-10-04T14:17:53.527Z,13.30
2017-10-04T14:20:23.871Z,13.30
2017-10-04T14:22:54.268Z,13.30
2017-10-04T14:25:24.611Z,13.20
2017-10-04T14:27:54.919Z,13.20
2017-10-04T14:30:25.468Z,13.20
2017-10-04T14:32:55.872Z,13.20
2017-10-04T14:35:26.201Z,13.20
2017-10-04T14:41:29.275Z,13.20
2017-10-04T14:43:59.755Z,13.20
2017-10-04T14:46:30.239Z,13.20
2017-10-04T14:49:00.461Z,13.20
2017-10-04T14:51:30.641Z,13.20
2017-10-04T14:54:00.901Z,13.00
2017-10-04T14:56:31.222Z,13.40
2017-10-04T14:59:01.601Z,13.70
2017-10-04T15:01:32.845Z,13.90
2017-10-04T15:04:03.382Z,14.00
2017-10-04T15:06:33.779Z,14.10
2017-10-04T15:09:04.250Z,14.10
2017-10-04T15:11:34.889Z,14.20
2017-10-04T15:14:05.380Z,14.30
2017-10-04T15:16:35.536Z,14.30
2017-10-04T15:19:06.002Z,14.30
2017-10-04T15:21:36.515Z,14.40
2017-10-04T15:24:06.833Z,14.40
2017-10-04T15:26:37.337Z,14.40
2017-10-04T15:29:07.579Z,14.40
2017-10-04T15:31:37.880Z,14.40
2017-10-04T15:34:08.320Z,14.40
2017-10-04T15:36:38.588Z,14.50
2017-10-04T15:39:09.075Z,14.50
2017-10-04T15:41:40.097Z,14.50
2017-10-04T15:44:10.448Z,14.50
2017-10-04T15:46:40.632Z,14.40
2017-10-04T15:49:10.918Z,14.40
2017-10-04T15:51:41.271Z,14.40
2017-10-04T15:54:11.738Z,14.40
2017-10-04T15:56:43.205Z,14.40
2017-10-04T15:59:13.468Z,14.40
2017-10-04T16:01:43.794Z,14.40
2017-10-04T16:04:14.062Z,14.40
2017-10-04T16:06:44.542Z,14.40
2017-10-04T16:09:14.704Z,14.40
2017-10-04T16:11:46.045Z,14.40
2017-10-04T16:14:16.337Z,14.40
2017-10-04T16:16:46.553Z,14.50
2017-10-04T16:19:16.690Z,14.40
2017-10-04T16:21:47.024Z,14.40
2017-10-04T16:24:17.385Z,14.40
2017-10-04T16:26:47.692Z,14.40
2017-10-04T16:29:18.008Z,14.40
2017-10-04T16:31:49.212Z,14.30
2017-10-04T16:34:19.502Z,14.30
2017-10-04T16:36:49.781Z,14.30
2017-10-04T16:39:20.138Z,14.30
2017-10-04T16:41:50.613Z,14.30
2017-10-04T16:44:20.940Z,14.20
2017-10-04T16:46:51.109Z,14.20
2017-10-04T16:49:22.089Z,14.20
2017-10-04T16:51:52.617Z,14.20
2017-10-04T16:54:22.803Z,14.20
2017-10-04T16:56:53.240Z,14.20
2017-10-04T16:59:23.667Z,14.20
2017-10-04T17:01:54.003Z,14.10
2017-10-04T17:04:24.604Z,14.10
2017-10-04T17:06:55.600Z,14.00
2017-10-04T17:09:25.845Z,14.00
2017-10-04T17:11:56.057Z,14.00
2017-10-04T17:14:26.255Z,14.00
2017-10-04T17:16:56.669Z,14.00
2017-10-04T17:19:26.992Z,14.00
2017-10-04T17:21:57.299Z,14.00
2017-10-04T17:24:27.751Z,14.00
2017-10-04T17:26:58.133Z,14.00
2017-10-04T17:29:28.637Z,13.90
2017-10-04T17:31:59.827Z,14.00
2017-10-04T17:34:30.320Z,14.00
2017-10-04T17:37:01.561Z,14.00
2017-10-04T17:39:31.838Z,13.90
2017-10-04T17:42:02.250Z,13.90
2017-10-04T17:44:32.701Z,13.90
2017-10-04T17:47:02.948Z,13.90
2017-10-04T17:49:33.340Z,13.80
2017-10-04T17:52:03.641Z,13.80
2017-10-04T17:54:33.823Z,13.70
2017-10-04T17:59:34.841Z,13.80
2017-10-04T18:02:05.213Z,13.70
2017-10-04T18:04:35.460Z,13.70
2017-10-04T18:07:05.884Z,13.70
2017-10-04T18:09:36.301Z,13.70
2017-10-04T18:12:06.585Z,13.70
2017-10-04T18:14:36.751Z,13.60
2017-10-04T18:17:07.202Z,13.60
2017-10-04T18:19:37.386Z,13.60
2017-10-04T18:22:08.649Z,13.60
2017-10-04T18:24:39.043Z,13.60
2017-10-04T18:27:09.285Z,13.60
2017-10-04T18:29:40.401Z,13.60
2017-10-04T18:32:10.810Z,13.50
2017-10-04T18:34:41.394Z,13.50
2017-10-04T18:37:11.841Z,13.50
2017-10-04T18:39:42.103Z,13.50
2017-10-04T18:42:12.408Z,13.40
2017-10-04T18:44:42.804Z,13.50
2017-10-04T18:47:13.352Z,13.50
2017-10-04T18:49:43.650Z,13.40
2017-10-04T18:52:14.062Z,13.40
2017-10-04T18:54:44.509Z,13.40
2017-10-04T18:57:15.148Z,13.40
2017-10-04T18:59:45.564Z,13.40
2017-10-04T19:02:17.121Z,13.40
2017-10-04T19:04:47.487Z,13.40
2017-10-04T19:07:18.037Z,13.40
2017-10-04T19:09:48.557Z,13.40
2017-10-04T19:12:18.830Z,13.40
2017-10-04T19:14:49.216Z,13.40
2017-10-04T19:17:20.312Z,13.40
2017-10-04T19:19:50.659Z,13.40
2017-10-04T19:22:20.982Z,13.40
2017-10-04T19:24:51.514Z,13.40
2017-10-04T19:27:21.818Z,13.40
2017-10-04T19:29:52.083Z,13.40
2017-10-04T19:32:23.480Z,13.40
2017-10-04T19:34:53.729Z,13.30
2017-10-04T19:37:24.584Z,13.30
2017-10-04T19:39:56.063Z,13.30
2017-10-04T19:42:26.479Z,13.30
2017-10-04T19:44:57.027Z,13.30
2017-10-04T19:47:27.620Z,13.30
2017-10-04T19:49:58.019Z,13.30
2017-10-04T19:52:28.418Z,13.30
2017-10-04T19:54:58.810Z,13.30
2017-10-04T19:57:30.180Z,13.30
2017-10-04T20:00:00.567Z,13.30
2017-10-04T20:02:30.894Z,13.30
2017-10-04T20:05:01.341Z,13.30
2017-10-04T20:07:32.459Z,13.20
2017-10-04T20:10:02.878Z,13.20
2017-10-04T20:12:39.044Z,13.20
2017-10-04T20:15:09.486Z,13.20
2017-10-04T20:17:39.708Z,13.20
2017-10-04T20:20:10.086Z,13.20
2017-10-04T20:22:40.347Z,13.20
2017-10-04T20:25:10.794Z,13.20
2017-10-04T20:27:41.166Z,13.20
2017-10-04T20:30:11.675Z,13.20
2017-10-04T20:32:42.105Z,13.20
2017-10-04T20:35:12.432Z,13.20
2017-10-04T20:37:42.842Z,13.10
2017-10-04T20:40:13.243Z,13.10
2017-10-04T20:42:43.625Z,13.10
2017-10-04T20:45:14.084Z,13.10
2017-10-04T20:47:44.453Z,13.10
2017-10-04T20:50:14.934Z,13.10
2017-10-04T20:52:45.431Z,13.10
2017-10-04T20:55:15.922Z,13.10
2017-10-04T20:57:46.501Z,13.10
2017-10-04T21:00:17.029Z,13.10
2017-10-04T21:02:47.427Z,13.00
2017-10-04T21:05:18.493Z,13.00
2017-10-04T21:07:48.998Z,13.00
2017-10-04T21:10:19.377Z,13.00
2017-10-04T21:12:49.849Z,13.00
2017-10-04T21:15:20.356Z,13.00
2017-10-04T21:17:50.494Z,13.00
2017-10-04T21:20:20.866Z,13.00
2017-10-04T21:22:51.171Z,13.00
2017-10-04T21:25:22.976Z,13.00
2017-10-04T21:27:53.332Z,13.00
2017-10-04T21:30:23.711Z,13.00
2017-10-04T21:32:54.057Z,12.90
2017-10-04T21:35:24.416Z,12.90
2017-10-04T21:37:54.959Z,12.90
2017-10-04T21:40:25.460Z,12.90
2017-10-04T21:42:55.962Z,12.90
2017-10-04T21:45:26.287Z,12.90
2017-10-04T21:47:56.472Z,12.90
2017-10-04T21:50:26.926Z,12.90
2017-10-04T21:52:57.244Z,12.90
2017-10-04T21:55:27.457Z,12.90
2017-10-04T21:57:58.105Z,12.90
2017-10-04T22:00:28.517Z,12.90
2017-10-04T22:02:58.848Z,12.90
2017-10-04T22:05:29.295Z,12.90
2017-10-04T22:07:59.455Z,12.90
2017-10-04T22:10:29.843Z,12.90
2017-10-04T22:13:00.279Z,12.90
2017-10-04T22:15:30.253Z,12.80
2017-10-04T22:18:01.008Z,12.80
2017-10-04T22:20:31.317Z,12.80
2017-10-04T22:23:08.187Z,12.80
2017-10-04T22:25:38.127Z,12.80
2017-10-04T22:28:08.429Z,12.80
2017-10-04T22:30:38.374Z,12.80
2017-10-04T22:33:08.464Z,12.80
2017-10-04T22:35:38.412Z,12.80
2017-10-04T22:38:08.495Z,12.80
2017-10-04T22:40:38.652Z,12.80
2017-10-04T22:43:08.532Z,12.80
2017-10-04T22:45:38.852Z,12.80
2017-10-04T22:48:09.380Z,12.80
2017-10-04T22:50:39.088Z,12.80
2017-10-04T22:53:09.004Z,12.70
2017-10-04T22:55:38.715Z,12.80
2017-10-04T22:58:08.575Z,12.70
2017-10-04T23:00:38.345Z,12.70
2017-10-04T23:03:08.044Z,12.70
2017-10-04T23:05:38.369Z,12.70
2017-10-04T23:08:09.721Z,12.70
2017-10-04T23:10:40.659Z,12.70
2017-10-04T23:13:10.983Z,12.70
2017-10-04T23:15:40.692Z,12.70
2017-10-04T23:18:10.801Z,12.70
2017-10-04T23:20:40.452Z,12.60
2017-10-04T23:23:10.431Z,12.60
2017-10-04T23:25:40.358Z,12.70
2017-10-04T23:28:10.057Z,12.70
2017-10-04T23:30:39.766Z,12.70
2017-10-04T23:33:10.302Z,12.60
2017-10-04T23:35:41.439Z,12.60
2017-10-04T23:38:12.172Z,12.60
2017-10-04T23:40:41.879Z,12.60
2017-10-04T23:43:11.721Z,12.60
2017-10-04T23:45:41.502Z,12.60
2017-10-04T23:48:11.214Z,12.60
2017-10-04T23:50:42.560Z,12.60
2017-10-04T23:53:13.089Z,12.60
2017-10-04T23:55:44.233Z,12.60
2017-10-04T23:58:15.514Z,12.60
